Notice: Undefined index: language in /var/www/vam/vam/index.php on line 25

 Air Côte d'Ivoire Virtuel



 METAR AND TAF INFORMATION
METAR FOR GOBD
ADDS - METARS form results

(1250 UTC 17 July 2019)
Data provider http://aviationweather.gov/metar/data/
 
METAR text: GOBD 171230Z 19005KT 100V270 8000 FEW020 30/21 Q1015 NOSIG
Conditions at: GOBD (DAKAR/DIAGNE , SN) observed 1230 UTC 17 July 2019
Temperature: 30.0°C (86°F)
Dewpoint: 21.0°C (70°F) [RH = 59%]
Pressure (altimeter): 29.97 inches Hg (1015.0 mb)
Winds: from the S (190 degrees) at 6 MPH (5 knots; 2.6 m/s)
Visibility: 5 miles ( 8 km)
Ceiling: at least 12,000 feet AGL
Clouds: few clouds at 2000 feet AGL
Weather: no significant weather observed at this time

METAR text: GOBD 171200Z 07004KT 340V120 8000 FEW032 29/20 Q1016 NOSIG
Conditions at: GOBD (DAKAR/DIAGNE , SN) observed 1200 UTC 17 July 2019
Temperature: 29.0°C (84°F)
Dewpoint: 20.0°C (68°F) [RH = 58%]
Pressure (altimeter): 30.00 inches Hg (1016.0 mb)
Winds: from the ENE (70 degrees) at 5 MPH (4 knots; 2.1 m/s)
Visibility: 5 miles ( 8 km)
Ceiling: at least 12,000 feet AGL
Clouds: few clouds at 3200 feet AGL
Weather: no significant weather observed at this time

Forecast for: COR
Text: TAF COR GOBD 171130Z 1712/1818 31010KT 9999 SCT012
Forecast period: 1200 UTC 17 July 2019 to 1800 UTC 18 July 2019
Forecast type: FROM: standard forecast or significant change
Winds: from the NW (310 degrees) at 12 MPH (10 knots; 5.1 m/s)
Visibility: 6 or more miles 10+ km)
Ceiling: at least 12,000 feet AGL
Clouds: scattered clouds at 1200 feet AGL
Weather: no significant weather forecast for this period

 AIRPORT MAP

 RUNWAY INFORMATION

 AIRPORT FREQUENCIES
Type TWR Name DIASS TWR Frequency 118.8 MHZ
Type A/G Name DIASS GND Frequency 121.8 MHZ
Type ATIS Name DIASS ATIS Frequency 126.2 MHZ
Type APP Name DIASS APP Frequency 120.5 MHZ
Type ACC Name DAKAR CON Frequency 129.5 MHZ

 AIRPORT NEAR NAVIGATION AIDS